Time;durP1;ratioP1;P1;durP2;ratioP2;P2;SDS_P1;SDS_P2;PMS_P1;PMS_P2;Temp;Humidity;BMP_temperature;BMP_pressure;BME280_temperature;BME280_humidity;BME280_pressure;Samples;Min_cycle;Max_cycle;Signal;HPM_P1;HPM_P2
2022/04/18 00:00:10;;;;;;;15.43;8.88;;;8.50;97.00;;;;;;5093898;28;20478;-62
2022/04/18 00:02:36;;;;;;;15.98;9.60;;;8.10;96.00;;;;;;5094322;28;20401;-62
2022/04/18 00:05:02;;;;;;;16.45;10.07;;;8.20;96.30;;;;;;5093572;28;20032;-62
2022/04/18 00:07:28;;;;;;;15.88;9.45;;;8.10;96.50;;;;;;5095382;28;20036;-62
2022/04/18 00:09:53;;;;;;;17.30;9.88;;;8.30;96.50;;;;;;5093600;28;20051;-62
2022/04/18 00:12:19;;;;;;;13.93;9.35;;;8.00;96.60;;;;;;5094979;28;20484;-62
2022/04/18 00:14:45;;;;;;;13.75;9.88;;;9.40;97.30;;;;;;5093785;28;20039;-62
2022/04/18 00:17:11;;;;;;;15.40;9.93;;;8.20;97.70;;;;;;5093750;28;20036;-62
2022/04/18 00:19:37;;;;;;;15.98;10.82;;;8.00;98.20;;;;;;5093259;28;20097;-62
2022/04/18 00:22:04;;;;;;;19.67;10.93;;;9.30;97.50;;;;;;5092307;28;20075;-62
2022/04/18 00:24:30;;;;;;;14.85;10.25;;;7.80;98.50;;;;;;5093360;28;20048;-62
2022/04/18 00:26:56;;;;;;;14.02;9.70;;;8.50;98.40;;;;;;5093306;28;20036;-62
2022/04/18 00:29:22;;;;;;;16.75;10.18;;;7.90;98.60;;;;;;5094061;28;20385;-62
2022/04/18 00:31:47;;;;;;;16.40;10.20;;;8.10;98.90;;;;;;5094594;28;20042;-62
2022/04/18 00:34:14;;;;;;;14.38;9.55;;;8.00;99.60;;;;;;5093260;28;20481;-62
2022/04/18 00:36:40;;;;;;;16.25;9.93;;;7.60;99.90;;;;;;5092626;28;20047;-62
2022/04/18 00:39:06;;;;;;;15.07;10.05;;;7.70;99.90;;;;;;5094268;28;20040;-62
2022/04/18 00:41:31;;;;;;;14.32;9.88;;;8.60;99.90;;;;;;5093099;28;20048;-62
2022/04/18 00:43:57;;;;;;;13.60;9.10;;;7.80;99.90;;;;;;5092440;28;20051;-62
2022/04/18 00:46:25;;;;;;;14.85;9.35;;;;;;;;;;5093407;28;20028;-62
2022/04/18 00:48:51;;;;;;;16.50;9.65;;;;;;;;;;5092861;28;20040;-62
2022/04/18 00:51:21;;;;;;;15.35;10.30;;;7.50;94.10;;;;;;5092653;28;20047;-62
2022/04/18 00:53:48;;;;;;;18.83;11.35;;;7.60;99.90;;;;;;5092775;28;20056;-62
2022/04/18 00:56:17;;;;;;;14.05;9.85;;;7.60;99.90;;;;;;5093947;28;20389;-62
2022/04/18 00:58:44;;;;;;;16.08;11.18;;;7.10;99.90;;;;;;5093264;28;20040;-62
2022/04/18 01:01:10;;;;;;;15.52;10.48;;;7.60;99.90;;;;;;5094100;28;20119;-62
2022/04/18 01:03:38;;;;;;;15.07;10.50;;;;;;;;;;5093916;28;20123;-62
2022/04/18 01:06:05;;;;;;;17.20;11.00;;;;;;;;;;5093041;28;20035;-62
2022/04/18 01:08:34;;;;;;;16.63;10.27;;;7.40;98.30;;;;;;5093638;28;20087;-62
2022/04/18 01:11:00;;;;;;;19.30;10.77;;;;;;;;;;5093103;28;20040;-62
2022/04/18 01:13:27;;;;;;;16.55;10.98;;;;;;;;;;5092732;28;20075;-62
2022/04/18 01:15:57;;;;;;;18.63;12.02;;;;;;;;;;5093630;28;20172;-62
2022/04/18 01:18:23;;;;;;;15.43;10.85;;;;;;;;;;5092954;28;20489;-62
2022/04/18 01:20:49;;;;;;;16.55;11.63;;;;;;;;;;5092477;28;20099;-62
2022/04/18 01:23:17;;;;;;;16.77;11.00;;;;;;;;;;5093309;28;20477;-62
2022/04/18 01:31:12;;;;;;;19.13;12.20;;;;;;;;;;5109195;28;20052;-62
2022/04/18 01:33:38;;;;;;;18.27;12.00;;;;;;;;;;5090423;28;20450;-62
2022/04/18 01:36:05;;;;;;;15.70;10.73;;;7.40;99.90;;;;;;5093436;28;20040;-62
2022/04/18 01:38:30;;;;;;;16.35;11.38;;;7.40;99.90;;;;;;5093104;28;20489;-62
2022/04/18 01:40:56;;;;;;;16.95;11.32;;;6.50;99.90;;;;;;5092561;28;20047;-62
2022/04/18 01:43:21;;;;;;;15.77;11.38;;;7.00;99.90;;;;;;5092185;28;20040;-62
2022/04/18 01:45:47;;;;;;;16.83;11.82;;;7.10;99.90;;;;;;5091555;28;20049;-62
2022/04/18 01:48:13;;;;;;;14.80;10.40;;;6.50;99.90;;;;;;5092614;28;20039;-62
2022/04/18 01:50:39;;;;;;;17.33;9.90;;;6.80;99.90;;;;;;5093206;28;20096;-62
2022/04/18 01:53:05;;;;;;;19.58;11.35;;;7.00;99.90;;;;;;5093082;28;20036;-62
2022/04/18 01:55:31;;;;;;;15.65;11.15;;;6.50;99.90;;;;;;5092139;28;20044;-62
2022/04/18 01:57:57;;;;;;;18.13;10.95;;;7.10;99.90;;;;;;5092821;28;20050;-62
2022/04/18 02:00:23;;;;;;;16.17;11.45;;;6.70;99.90;;;;;;5092118;28;20400;-62
2022/04/18 02:02:48;;;;;;;16.45;11.02;;;6.70;99.90;;;;;;5091366;28;20047;-62
2022/04/18 02:05:14;;;;;;;16.23;10.73;;;7.40;99.90;;;;;;5092835;28;20365;-62
2022/04/18 02:07:39;;;;;;;18.20;12.05;;;6.50;99.90;;;;;;5091965;28;20039;-62
2022/04/18 02:10:06;;;;;;;16.27;11.07;;;6.70;99.90;;;;;;5092445;28;20412;-62
2022/04/18 02:12:32;;;;;;;17.65;10.55;;;6.70;99.90;;;;;;5092316;28;20044;-62
2022/04/18 02:14:58;;;;;;;15.73;10.98;;;6.30;99.90;;;;;;5091766;28;20119;-62
2022/04/18 02:17:24;;;;;;;18.42;12.25;;;6.60;99.90;;;;;;5092735;28;20127;-62
2022/04/18 02:19:49;;;;;;;16.45;11.52;;;6.70;99.90;;;;;;5091157;28;20130;-62
2022/04/18 02:22:15;;;;;;;15.35;9.98;;;6.70;99.90;;;;;;5092087;28;20391;-62
2022/04/18 02:24:41;;;;;;;18.08;9.95;;;6.10;99.90;;;;;;5091198;28;20389;-62
2022/04/18 02:27:08;;;;;;;17.70;11.50;;;6.30;99.90;;;;;;5091026;28;20075;-62
2022/04/18 02:29:34;;;;;;;17.83;12.02;;;6.60;99.90;;;;;;5090419;28;20047;-62
2022/04/18 02:34:44;;;;;;;16.52;10.13;;;6.30;99.90;;;;;;5092450;28;20048;-62
2022/04/18 02:37:10;;;;;;;19.33;10.43;;;6.80;99.90;;;;;;5091508;28;20139;-62
2022/04/18 02:39:36;;;;;;;18.73;10.93;;;6.50;99.90;;;;;;5090989;28;20040;-62
2022/04/18 02:42:01;;;;;;;16.85;10.90;;;6.30;99.90;;;;;;5092048;28;20071;-62
2022/04/18 02:44:27;;;;;;;18.55;10.48;;;5.90;99.90;;;;;;5091535;28;20032;-62
2022/04/18 02:46:53;;;;;;;18.05;11.68;;;6.50;99.90;;;;;;5091683;28;20036;-62
2022/04/18 02:49:18;;;;;;;16.05;11.70;;;6.10;99.90;;;;;;5092343;28;20044;-62
2022/04/18 02:51:44;;;;;;;16.58;11.40;;;6.30;99.90;;;;;;5090148;28;20054;-62
2022/04/18 02:54:10;;;;;;;17.63;11.05;;;6.30;99.90;;;;;;5090905;28;20048;-62
2022/04/18 02:56:36;;;;;;;14.43;10.45;;;6.10;99.90;;;;;;5091024;28;20047;-62
2022/04/18 02:59:01;;;;;;;14.98;10.50;;;6.70;99.90;;;;;;5091932;28;20043;-62
2022/04/18 03:01:27;;;;;;;16.77;10.93;;;5.70;99.90;;;;;;5092514;28;20493;-62
2022/04/18 03:03:53;;;;;;;16.88;11.50;;;5.80;99.90;;;;;;5091108;28;20510;-62
2022/04/18 03:06:18;;;;;;;16.45;11.00;;;6.20;99.90;;;;;;5092352;28;20488;-62
2022/04/18 03:08:44;;;;;;;19.85;11.60;;;6.10;99.90;;;;;;5091735;28;20497;-62
2022/04/18 03:11:10;;;;;;;16.58;11.68;;;6.20;99.90;;;;;;5091088;28;20050;-62
2022/04/18 03:13:37;;;;;;;16.88;11.70;;;5.70;99.90;;;;;;5090652;28;20043;-62
2022/04/18 03:16:04;;;;;;;17.48;11.85;;;5.80;99.90;;;;;;5091931;28;20040;-62
2022/04/18 03:18:31;;;;;;;15.07;11.10;;;6.10;99.90;;;;;;5090808;28;20489;-62
2022/04/18 03:20:57;;;;;;;17.42;11.35;;;5.90;99.90;;;;;;5090805;28;20054;-62
2022/04/18 03:23:23;;;;;;;16.88;11.85;;;5.70;99.90;;;;;;5092145;28;20047;-62
2022/04/18 03:25:48;;;;;;;16.33;10.85;;;6.00;99.90;;;;;;5089921;28;20040;-62
2022/04/18 03:28:14;;;;;;;17.77;11.30;;;5.70;99.90;;;;;;5090569;28;20032;-62
2022/04/18 03:30:40;;;;;;;18.55;10.90;;;6.20;99.90;;;;;;5073611;28;20104;-62
2022/04/18 03:33:05;;;;;;;17.85;11.63;;;5.50;99.90;;;;;;5089658;28;20040;-62
2022/04/18 03:35:31;;;;;;;14.40;10.20;;;6.20;99.90;;;;;;5090639;28;20032;-62
2022/04/18 03:40:42;;;;;;;16.83;10.77;;;5.50;99.90;;;;;;5090677;28;20051;-62
2022/04/18 03:43:07;;;;;;;18.00;11.70;;;5.90;99.90;;;;;;5091559;28;20036;-62
2022/04/18 03:45:33;;;;;;;16.75;11.27;;;5.40;99.90;;;;;;5091722;28;20036;-62
2022/04/18 03:47:59;;;;;;;16.52;11.45;;;6.00;99.90;;;;;;5090871;28;20110;-62
2022/04/18 03:50:25;;;;;;;15.60;10.70;;;6.30;99.90;;;;;;5073962;28;20043;-62
2022/04/18 03:52:51;;;;;;;16.38;10.77;;;;;;;;;;5090615;28;20036;-62
2022/04/18 03:55:17;;;;;;;15.43;10.43;;;;;;;;;;5090737;28;20039;-62
2022/04/18 03:57:42;;;;;;;17.50;12.05;;;5.70;99.90;;;;;;5093814;28;20040;-62
2022/04/18 04:00:10;;;;;;;16.38;10.68;;;6.00;99.90;;;;;;5093104;28;20047;-62
2022/04/18 04:02:37;;;;;;;17.48;11.23;;;6.00;99.90;;;;;;5095265;28;20400;-62
2022/04/18 04:05:03;;;;;;;15.48;10.70;;;6.10;99.90;;;;;;5095049;28;20044;-62
2022/04/18 04:07:29;;;;;;;17.25;11.63;;;5.80;99.90;;;;;;5093254;28;20039;-62
2022/04/18 04:09:54;;;;;;;16.55;10.90;;;5.60;99.90;;;;;;5094461;28;20052;-62
2022/04/18 04:12:24;;;;;;;18.88;11.07;;;5.80;99.90;;;;;;5095200;28;20056;-62
2022/04/18 04:14:53;;;;;;;17.15;11.43;;;6.00;99.90;;;;;;5094219;28;20102;-62
2022/04/18 04:17:21;;;;;;;15.48;10.57;;;5.90;99.90;;;;;;5093842;28;20036;-62
2022/04/18 04:19:47;;;;;;;13.80;10.30;;;5.90;99.90;;;;;;5093454;28;20036;-62
2022/04/18 04:22:12;;;;;;;15.57;10.68;;;6.10;99.90;;;;;;5092634;28;20081;-62
2022/04/18 04:24:38;;;;;;;18.38;11.23;;;5.90;99.90;;;;;;5076408;28;20040;-62
2022/04/18 04:27:04;;;;;;;16.25;10.70;;;5.40;99.90;;;;;;5093356;28;20044;-62
2022/04/18 04:29:30;;;;;;;16.30;10.63;;;5.50;99.90;;;;;;5093994;28;20125;-62
2022/04/18 04:31:56;;;;;;;15.30;10.82;;;5.40;99.90;;;;;;5094558;28;20135;-62
2022/04/18 04:34:21;;;;;;;19.25;11.82;;;6.50;99.90;;;;;;5093413;28;20055;-62
2022/04/18 04:36:47;;;;;;;17.45;10.80;;;5.50;99.90;;;;;;5093621;28;20040;-62
2022/04/18 04:39:12;;;;;;;16.50;10.85;;;5.60;99.90;;;;;;5093006;28;20513;-62
2022/04/18 04:41:38;;;;;;;15.10;10.73;;;5.50;99.90;;;;;;5094563;28;20071;-62
2022/04/18 04:44:06;;;;;;;16.52;10.35;;;5.80;99.90;;;;;;5092477;28;20473;-62
2022/04/18 04:46:32;;;;;;;15.90;10.95;;;5.80;99.90;;;;;;5093027;28;20039;-62
2022/04/18 04:48:58;;;;;;;21.48;11.90;;;;;;;;;;5093876;28;20036;-62
2022/04/18 04:51:24;;;;;;;17.10;10.77;;;5.70;99.90;;;;;;5076139;28;20044;-62
2022/04/18 04:53:49;;;;;;;17.77;10.32;;;5.90;99.90;;;;;;5093968;28;20044;-62
2022/04/18 04:56:17;;;;;;;14.77;10.05;;;5.90;99.90;;;;;;5092071;28;20115;-62
2022/04/18 04:58:43;;;;;;;17.75;11.15;;;5.90;99.90;;;;;;5094080;28;20051;-62
2022/04/18 05:01:08;;;;;;;13.85;10.68;;;5.60;99.90;;;;;;5092905;28;20047;-62
2022/04/18 05:03:34;;;;;;;13.73;9.73;;;5.50;99.90;;;;;;5093224;28;20495;-62
2022/04/18 05:06:00;;;;;;;14.95;9.90;;;5.60;99.90;;;;;;5089517;28;20089;-62
2022/04/18 05:08:25;;;;;;;19.35;11.88;;;6.00;99.90;;;;;;5092549;28;20055;-62
2022/04/18 05:10:54;;;;;;;15.63;11.25;;;5.50;99.90;;;;;;5092874;28;20039;-62
2022/04/18 05:13:22;;;;;;;18.02;11.27;;;5.40;99.90;;;;;;5074555;28;20040;-62
2022/04/18 05:15:47;;;;;;;16.65;10.77;;;6.00;99.90;;;;;;5073505;28;20102;-62
2022/04/18 05:18:13;;;;;;;17.33;12.05;;;6.00;99.90;;;;;;5085744;28;20040;-62
2022/04/18 05:20:39;;;;;;;22.05;11.38;;;6.00;99.90;;;;;;5092298;28;20093;-62
2022/04/18 05:23:05;;;;;;;17.08;11.30;;;6.10;99.90;;;;;;5091639;28;20499;-62
2022/04/18 05:25:31;;;;;;;17.88;11.18;;;6.00;99.90;;;;;;5092551;28;20040;-62
2022/04/18 05:27:57;;;;;;;20.88;11.95;;;6.40;99.90;;;;;;5093295;28;20032;-62
2022/04/18 05:30:23;;;;;;;16.65;11.13;;;6.60;99.90;;;;;;5093743;28;20079;-62
2022/04/18 05:32:48;;;;;;;17.15;10.40;;;6.20;99.90;;;;;;5092492;28;20072;-62
2022/04/18 05:35:14;;;;;;;19.73;10.98;;;6.40;99.90;;;;;;5108913;28;20044;-62
2022/04/18 05:37:40;;;;;;;13.32;9.55;;;6.70;99.90;;;;;;5108973;28;20047;-62
2022/04/18 05:40:06;;;;;;;15.73;11.02;;;7.20;99.90;;;;;;5092207;28;20071;-62
2022/04/18 05:42:31;;;;;;;20.50;10.98;;;6.40;99.90;;;;;;5093102;28;20040;-62
2022/04/18 05:44:57;;;;;;;16.02;10.30;;;6.80;99.90;;;;;;5091169;28;20032;-62
2022/04/18 05:47:24;;;;;;;18.50;11.38;;;6.90;99.90;;;;;;5092358;28;20064;-62
2022/04/18 05:49:49;;;;;;;16.77;11.93;;;7.10;99.90;;;;;;5091952;28;20137;-62
2022/04/18 05:52:15;;;;;;;18.35;11.75;;;;;;;;;;5091279;28;20074;-62
2022/04/18 05:54:41;;;;;;;15.13;11.45;;;7.20;99.90;;;;;;5092849;28;20097;-62
2022/04/18 05:57:07;;;;;;;22.33;11.27;;;7.20;99.90;;;;;;5092696;28;20461;-62
2022/04/18 05:59:33;;;;;;;16.05;11.93;;;7.40;99.90;;;;;;5092041;28;20128;-62
2022/04/18 06:01:59;;;;;;;24.08;11.52;;;;;;;;;;5091588;28;20040;-62
2022/04/18 06:04:25;;;;;;;16.02;10.07;;;;;;;;;;5092657;28;20036;-62
2022/04/18 06:06:51;;;;;;;16.02;10.75;;;;;;;;;;5090267;28;20097;-62
2022/04/18 06:09:17;;;;;;;18.52;10.93;;;7.80;99.90;;;;;;5092545;28;20443;-62
2022/04/18 06:11:43;;;;;;;13.93;10.25;;;7.80;99.90;;;;;;5092656;28;20036;-62
2022/04/18 06:14:08;;;;;;;16.50;10.27;;;7.60;99.90;;;;;;5090598;28;20035;-62
2022/04/18 06:16:34;;;;;;;16.55;12.68;;;8.60;99.90;;;;;;5091402;28;20400;-62
2022/04/18 06:18:59;;;;;;;17.80;10.60;;;8.30;99.90;;;;;;5090688;28;20048;-62
2022/04/18 06:21:25;;;;;;;14.43;10.52;;;;;;;;;;5090235;28;20040;-62
2022/04/18 06:23:51;;;;;;;17.88;10.43;;;;;;;;;;5091718;28;20068;-62
2022/04/18 06:26:17;;;;;;;16.60;11.45;;;;;;;;;;5092764;28;20088;-62
2022/04/18 06:28:44;;;;;;;18.88;11.98;;;;;;;;;;5089993;28;20059;-61
2022/04/18 06:31:10;;;;;;;18.35;11.98;;;;;;;;;;5092246;28;20507;-62
2022/04/18 06:33:36;;;;;;;16.20;10.57;;;;;;;;;;5092082;28;20036;-62
2022/04/18 06:36:02;;;;;;;17.10;11.57;;;;;;;;;;5089958;28;20046;-62
2022/04/18 06:38:31;;;;;;;17.90;10.68;;;;;;;;;;5092401;28;20040;-62
2022/04/18 06:40:58;;;;;;;18.20;11.20;;;;;;;;;;5091995;28;20047;-62
2022/04/18 06:43:24;;;;;;;17.80;11.57;;;;;;;;;;5090765;28;20042;-62
2022/04/18 06:45:50;;;;;;;16.30;10.05;;;;;;;;;;5090513;28;20071;-62
2022/04/18 06:48:16;;;;;;;16.15;10.82;;;;;;;;;;5074021;28;20098;-62
2022/04/18 06:50:42;;;;;;;13.60;9.98;;;;;;;;;;5091135;28;20040;-62
2022/04/18 06:53:10;;;;;;;17.50;11.30;;;;;;;;;;5091974;28;20439;-62
2022/04/18 06:58:21;;;;;;;16.42;11.15;;;;;;;;;;5090974;28;20040;-62
2022/04/18 07:00:47;;;;;;;14.55;10.27;;;;;;;;;;5090945;28;20101;-62
2022/04/18 07:03:13;;;;;;;13.95;10.60;;;;;;;;;;5089854;28;20050;-62
2022/04/18 07:05:41;;;;;;;15.38;10.82;;;;;;;;;;5090529;28;20040;-62
2022/04/18 07:08:07;;;;;;;13.63;9.75;;;;;;;;;;5091700;28;20413;-62
2022/04/18 07:10:33;;;;;;;17.58;10.38;;;;;;;;;;5090669;28;20105;-62
2022/04/18 07:12:59;;;;;;;14.77;10.95;;;;;;;;;;5089473;28;20040;-62
2022/04/18 07:15:25;;;;;;;15.18;10.23;;;;;;;;;;5069307;28;20040;-62
2022/04/18 07:17:51;;;;;;;15.32;10.27;;;;;;;;;;5085983;28;20040;-62
2022/04/18 07:20:17;;;;;;;14.98;10.07;;;;;;;;;;5089368;28;20058;-62
2022/04/18 07:22:43;;;;;;;14.02;9.82;;;;;;;;;;5088641;28;20105;-62
2022/04/18 07:25:10;;;;;;;15.27;10.45;;;;;;;;;;5088176;28;20127;-62
2022/04/18 07:27:36;;;;;;;15.02;10.40;;;10.90;99.90;;;;;;5089048;28;20373;-62
2022/04/18 07:30:03;;;;;;;12.13;9.70;;;11.70;99.90;;;;;;5087289;28;20052;-62
2022/04/18 07:32:29;;;;;;;15.07;10.13;;;11.30;99.90;;;;;;5090397;28;20040;-62
2022/04/18 07:35:01;;;;;;;12.15;9.02;;;11.60;99.90;;;;;;5092494;28;20044;-62
2022/04/18 07:37:27;;;;;;;14.40;9.30;;;;;;;;;;5092988;28;20036;-62
2022/04/18 07:39:53;;;;;;;14.90;10.50;;;;;;;;;;5091165;28;20100;-62
2022/04/18 07:42:19;;;;;;;15.38;10.15;;;;;;;;;;5092086;28;20533;-62
2022/04/18 07:44:45;;;;;;;15.82;10.00;;;;;;;;;;5091869;28;20047;-62
2022/04/18 07:47:11;;;;;;;14.95;9.57;;;;;;;;;;5091525;28;20416;-62
2022/04/18 07:49:37;;;;;;;14.75;9.63;;;;;;;;;;5092576;28;20055;-62
2022/04/18 07:52:04;;;;;;;15.70;10.10;;;;;;;;;;5092379;28;20125;-62
2022/04/18 07:54:30;;;;;;;12.57;9.25;;;;;;;;;;5091648;28;20052;-62
2022/04/18 07:56:56;;;;;;;12.50;8.20;;;12.20;99.90;;;;;;5092818;28;20197;-62
2022/04/18 07:59:22;;;;;;;13.77;9.38;;;;;;;;;;5092120;28;20508;-62
2022/04/18 08:01:47;;;;;;;15.32;9.38;;;12.30;96.20;;;;;;5092033;28;20036;-62
2022/04/18 08:04:13;;;;;;;11.30;8.63;;;12.10;99.90;;;;;;5092051;28;20036;-62
2022/04/18 08:06:39;;;;;;;12.50;8.85;;;12.80;99.90;;;;;;5092329;28;20051;-62
2022/04/18 08:09:04;;;;;;;10.77;8.18;;;13.90;95.80;;;;;;5092603;28;20464;-62
2022/04/18 08:11:30;;;;;;;14.88;9.00;;;12.50;98.50;;;;;;5089115;28;20048;-62
2022/04/18 08:13:56;;;;;;;15.73;9.02;;;12.60;96.90;;;;;;5099602;28;20036;-62
2022/04/18 08:16:22;;;;;;;12.18;9.10;;;13.10;95.60;;;;;;5091088;28;20040;-62
2022/04/18 08:18:48;;;;;;;13.18;9.50;;;12.90;99.90;;;;;;5103970;28;20063;-62
2022/04/18 08:21:17;;;;;;;11.98;8.77;;;13.00;92.90;;;;;;5080120;28;20476;-62
2022/04/18 08:23:44;;;;;;;13.13;8.77;;;13.10;98.50;;;;;;5092114;28;20104;-62
2022/04/18 08:26:10;;;;;;;13.68;7.78;;;13.00;99.90;;;;;;5093410;28;20059;-62
2022/04/18 08:28:37;;;;;;;13.80;8.30;;;;;;;;;;5101228;28;20036;-62
2022/04/18 08:31:04;;;;;;;12.20;8.85;;;;;;;;;;5102091;28;20040;-60
2022/04/18 08:33:30;;;;;;;12.90;8.10;;;;;;;;;;5089810;28;20044;-61
2022/04/18 08:35:59;;;;;;;12.30;8.60;;;13.40;79.50;;;;;;5098505;28;20040;-59
2022/04/18 08:38:28;;;;;;;14.30;8.73;;;13.80;99.90;;;;;;5099938;28;20060;-61
2022/04/18 08:41:01;;;;;;;11.30;8.15;;;13.70;87.10;;;;;;5101521;28;20070;-62
2022/04/18 08:43:26;;;;;;;12.82;8.52;;;14.20;92.00;;;;;;5100836;28;20485;-61
2022/04/18 08:45:53;;;;;;;10.18;7.53;;;;;;;;;;5096612;28;20036;-61
2022/04/18 08:53:48;;;;;;;14.02;9.32;;;13.70;99.00;;;;;;5093943;28;20432;-63
2022/04/18 08:56:14;;;;;;;14.13;9.18;;;14.20;99.40;;;;;;5097639;28;20032;-62
2022/04/18 08:58:40;;;;;;;13.00;9.43;;;14.00;98.90;;;;;;5099204;28;20044;-63
2022/04/18 09:01:07;;;;;;;11.93;7.35;;;;;;;;;;5097767;28;20081;-63
2022/04/18 09:03:34;;;;;;;12.65;9.07;;;14.60;99.30;;;;;;5100972;28;20039;-62
2022/04/18 09:06:05;;;;;;;12.52;8.25;;;14.10;97.70;;;;;;5094664;28;20062;-62
2022/04/18 09:08:34;;;;;;;9.65;7.32;;;14.80;99.20;;;;;;5091189;28;20437;-62
2022/04/18 09:10:59;;;;;;;11.35;7.80;;;15.20;97.90;;;;;;5088870;28;20044;-62
2022/04/18 09:13:25;;;;;;;13.18;8.05;;;14.70;79.40;;;;;;5098440;28;20391;-62
2022/04/18 09:15:51;;;;;;;11.00;7.28;;;;;;;;;;5098042;28;20741;-62
2022/04/18 09:18:21;;;;;;;10.48;6.75;;;;;;;;;;5095919;28;20131;-62
2022/04/18 09:20:55;;;;;;;13.75;7.88;;;15.10;71.20;;;;;;5080131;28;20097;-62
2022/04/18 09:23:25;;;;;;;11.60;7.60;;;15.20;70.50;;;;;;5109511;28;20528;-62
2022/04/18 09:25:58;;;;;;;12.85;8.35;;;15.20;69.90;;;;;;5098129;28;20071;-62
2022/04/18 09:28:26;;;;;;;10.77;7.22;;;14.90;70.40;;;;;;5100656;28;20546;-62
2022/04/18 09:31:01;;;;;;;10.40;7.13;;;15.80;90.40;;;;;;5089572;28;20032;-62
2022/04/18 09:33:30;;;;;;;11.88;7.65;;;16.10;88.70;;;;;;5089730;28;20079;-62
2022/04/18 09:36:24;;;;;;;11.35;7.40;;;16.30;88.30;;;;;;5091727;28;20040;-62
2022/04/18 09:38:57;;;;;;;12.50;8.00;;;16.20;90.50;;;;;;5078805;28;20059;-62
2022/04/18 09:41:32;;;;;;;10.68;7.03;;;16.40;78.20;;;;;;5099795;28;20487;-62
2022/04/18 09:43:59;;;;;;;10.05;6.47;;;16.00;70.70;;;;;;5106042;28;20040;-62
2022/04/18 09:46:25;;;;;;;11.20;7.43;;;16.30;81.70;;;;;;5098726;28;20084;-62
2022/04/18 09:48:52;;;;;;;10.38;7.10;;;16.30;76.70;;;;;;5106104;28;20039;-62
2022/04/18 09:51:26;;;;;;;11.75;7.28;;;;;;;;;;5089834;28;20044;-62
2022/04/18 09:53:57;;;;;;;9.27;7.10;;;;;;;;;;5092244;28;20066;-62
2022/04/18 09:56:23;;;;;;;11.00;7.20;;;;;;;;;;5089035;28;20046;-63
2022/04/18 09:58:49;;;;;;;9.60;6.70;;;;;;;;;;5099137;28;20461;-63
2022/04/18 10:01:19;;;;;;;11.32;7.05;;;;;;;;;;5097481;28;20564;-63
2022/04/18 10:03:46;;;;;;;9.73;6.47;;;;;;;;;;5105020;28;20050;-62
2022/04/18 10:06:12;;;;;;;10.02;6.63;;;;;;;;;;5098970;28;20035;-62
2022/04/18 10:08:39;;;;;;;10.63;6.45;;;;;;;;;;5091050;28;20051;-62
2022/04/18 10:11:07;;;;;;;9.02;6.35;;;;;;;;;;5078675;28;20133;-62
2022/04/18 10:13:35;;;;;;;7.85;6.18;;;;;;;;;;5087512;28;20086;-62
2022/04/18 10:16:01;;;;;;;9.30;6.00;;;;;;;;;;5091480;28;20775;-62
2022/04/18 10:18:28;;;;;;;9.57;6.22;;;;;;;;;;5073152;28;20182;-62
2022/04/18 10:21:06;;;;;;;9.68;6.50;;;16.80;99.00;;;;;;5088115;28;20048;-62
2022/04/18 10:23:36;;;;;;;10.35;6.38;;;;;;;;;;5090215;28;20036;-62
2022/04/18 10:26:22;;;;;;;8.65;5.85;;;;;;;;;;5089120;28;20480;-62
2022/04/18 10:28:50;;;;;;;7.90;5.78;;;;;;;;;;5087288;28;20129;-63
2022/04/18 10:31:28;;;;;;;8.77;6.00;;;;;;;;;;5087804;28;20553;-62
2022/04/18 10:33:57;;;;;;;11.35;6.20;;;16.90;59.40;;;;;;5087346;28;20112;-63
2022/04/18 10:36:27;;;;;;;10.93;5.97;;;16.90;60.00;;;;;;5089941;28;20042;-63
2022/04/18 10:38:56;;;;;;;9.15;5.82;;;17.00;59.40;;;;;;5087778;28;20051;-63
2022/04/18 10:41:32;;;;;;;7.38;4.65;;;17.10;59.50;;;;;;5088904;28;20044;-61
2022/04/18 10:44:00;;;;;;;10.63;4.90;;;17.20;58.50;;;;;;5073933;28;20089;-61
2022/04/18 10:46:26;;;;;;;8.70;5.45;;;17.20;57.50;;;;;;5090849;28;20044;-61
2022/04/18 10:49:00;;;;;;;8.18;5.40;;;17.20;57.10;;;;;;5105168;28;20040;-63
2022/04/18 10:51:28;;;;;;;8.17;5.17;;;17.50;66.10;;;;;;5105467;28;20116;-62
2022/04/18 10:54:10;;;;;;;11.05;5.40;;;17.40;94.90;;;;;;5091624;28;20032;-62
2022/04/18 10:56:50;;;;;;;7.95;5.05;;;17.00;57.10;;;;;;5091496;28;20062;-62
2022/04/18 10:59:23;;;;;;;8.80;4.45;;;17.70;93.50;;;;;;5090161;28;21294;-62
2022/04/18 11:01:50;;;;;;;6.60;4.70;;;17.70;60.00;;;;;;5091287;28;21047;-62
2022/04/18 11:04:16;;;;;;;11.38;5.20;;;17.90;92.20;;;;;;5091763;28;20029;-61
2022/04/18 11:06:46;;;;;;;7.00;4.65;;;;;;;;;;5094356;28;20032;-61
2022/04/18 11:09:31;;;;;;;6.22;4.90;;;;;;;;;;5094942;28;20047;-61
2022/04/18 11:12:05;;;;;;;9.55;5.00;;;;;;;;;;5095594;28;20408;-62
2022/04/18 11:14:44;;;;;;;8.57;4.18;;;;;;;;;;5095828;28;20535;-62
2022/04/18 11:17:13;;;;;;;7.20;4.57;;;;;;;;;;5088113;28;20044;-62
2022/04/18 11:19:40;;;;;;;6.70;4.32;;;;;;;;;;5075574;28;20040;-62
2022/04/18 11:22:08;;;;;;;6.13;4.43;;;;;;;;;;5092776;28;20089;-63
2022/04/18 11:24:36;;;;;;;7.88;4.95;;;;;;;;;;5094985;28;20115;-62
2022/04/18 11:27:02;;;;;;;8.82;4.85;;;;;;;;;;5092269;28;20035;-62
2022/04/18 11:29:33;;;;;;;6.65;4.65;;;;;;;;;;5094371;28;20039;-62
2022/04/18 11:32:00;;;;;;;9.25;4.72;;;;;;;;;;5094548;28;20044;-62
2022/04/18 11:34:27;;;;;;;8.23;4.15;;;;;;;;;;5094390;28;20476;-62
2022/04/18 11:36:58;;;;;;;7.65;4.03;;;;;;;;;;5095090;28;20123;-62
2022/04/18 11:39:24;;;;;;;7.10;4.53;;;;;;;;;;5095796;28;20119;-62
2022/04/18 11:42:01;;;;;;;9.18;5.10;;;;;;;;;;5094075;28;20105;-63
2022/04/18 11:44:27;;;;;;;6.38;4.38;;;;;;;;;;5073764;28;20044;-62
2022/04/18 11:46:54;;;;;;;7.28;4.45;;;18.70;72.00;;;;;;5073807;28;20481;-63
2022/04/18 11:49:26;;;;;;;8.98;4.18;;;19.80;64.40;;;;;;5090402;28;20079;-62
2022/04/18 11:51:52;;;;;;;5.75;3.50;;;19.30;67.70;;;;;;5093916;28;20036;-62
2022/04/18 11:54:18;;;;;;;5.90;3.30;;;19.90;71.80;;;;;;5095048;28;20044;-62
2022/04/18 11:56:56;;;;;;;5.85;3.70;;;19.30;65.80;;;;;;5094815;28;20389;-61
2022/04/18 11:59:21;;;;;;;6.25;3.67;;;19.40;69.20;;;;;;5077947;28;20047;-62
2022/04/18 12:07:19;;;;;;;6.78;3.58;;;19.00;82.20;;;;;;5092849;28;20083;-61
2022/04/18 12:09:45;;;;;;;7.78;3.67;;;19.10;53.50;;;;;;5094959;28;20048;-62
2022/04/18 12:12:26;;;;;;;7.32;4.30;;;19.70;53.00;;;;;;5093052;28;20051;-62
2022/04/18 12:14:52;;;;;;;7.75;3.50;;;;;;;;;;5093306;28;20052;-62
2022/04/18 12:17:18;;;;;;;6.80;3.90;;;;;;;;;;5093274;28;20052;-62
2022/04/18 12:19:44;;;;;;;5.35;3.25;;;;;;;;;;5092748;28;20480;-63
2022/04/18 12:22:19;;;;;;;5.82;3.45;;;;;;;;;;5094733;28;20086;-62
2022/04/18 12:24:46;;;;;;;7.07;3.50;;;;;;;;;;5093490;28;20048;-63
2022/04/18 12:27:12;;;;;;;7.20;3.90;;;;;;;;;;5093866;28;20036;-63
2022/04/18 12:29:38;;;;;;;6.25;2.88;;;;;;;;;;5094652;28;20044;-63
2022/04/18 12:32:04;;;;;;;7.50;3.40;;;;;;;;;;5094548;28;20048;-63
2022/04/18 12:34:30;;;;;;;6.53;3.45;;;;;;;;;;5093929;28;20036;-62
2022/04/18 12:37:00;;;;;;;5.85;3.53;;;;;;;;;;5094409;28;20036;-63
2022/04/18 12:39:27;;;;;;;6.03;3.53;;;;;;;;;;5094784;28;20169;-63
2022/04/18 12:42:05;;;;;;;5.28;3.38;;;;;;;;;;5091953;28;20040;-63
2022/04/18 12:44:31;;;;;;;6.72;3.42;;;;;;;;;;5093085;28;20048;-62
2022/04/18 12:46:57;;;;;;;6.68;3.90;;;19.80;80.30;;;;;;5093420;28;20047;-62
2022/04/18 12:49:23;;;;;;;6.90;3.90;;;19.60;75.10;;;;;;5092532;28;20048;-62
2022/04/18 12:51:51;;;;;;;6.28;4.13;;;20.30;70.00;;;;;;5093320;28;20446;-63
2022/04/18 12:54:20;;;;;;;7.57;4.45;;;20.30;45.40;;;;;;5093950;28;20075;-63
2022/04/18 12:56:47;;;;;;;8.27;3.97;;;19.90;66.50;;;;;;5093658;28;20492;-62
2022/04/18 12:59:14;;;;;;;6.22;3.47;;;21.10;67.40;;;;;;5093909;28;20439;-63
2022/04/18 13:01:40;;;;;;;6.70;3.90;;;20.50;67.20;;;;;;5092302;28;20036;-62
2022/04/18 13:04:28;;;;;;;8.00;4.05;;;20.50;70.30;;;;;;5092851;28;20032;-62
2022/04/18 13:07:05;;;;;;;6.05;3.55;;;20.80;70.10;;;;;;5093610;28;20047;-62
2022/04/18 13:09:31;;;;;;;6.97;3.20;;;20.30;69.70;;;;;;5093088;28;20059;-63
2022/04/18 13:12:01;;;;;;;6.88;3.53;;;20.60;67.70;;;;;;5092361;28;20032;-62
2022/04/18 13:14:26;;;;;;;6.13;3.53;;;20.30;64.50;;;;;;5085107;28;20455;-62
2022/04/18 13:17:07;;;;;;;6.00;3.33;;;20.40;44.40;;;;;;5089148;28;20043;-62
2022/04/18 13:19:35;;;;;;;5.25;3.10;;;20.40;44.50;;;;;;5079994;28;20046;-62
2022/04/18 13:22:00;;;;;;;5.80;3.42;;;20.50;44.40;;;;;;5090960;28;20039;-62
2022/04/18 13:24:26;;;;;;;4.95;3.10;;;20.50;43.70;;;;;;5089655;28;20557;-62
2022/04/18 13:26:52;;;;;;;5.72;2.92;;;;;;;;;;5089418;28;20508;-62
2022/04/18 13:29:18;;;;;;;6.18;3.30;;;;;;;;;;5088952;28;20154;-62
2022/04/18 13:31:45;;;;;;;5.63;2.83;;;;;;;;;;5072903;28;20166;-62
2022/04/18 13:34:11;;;;;;;5.93;3.10;;;;;;;;;;5085926;28;20047;-62
2022/04/18 13:36:37;;;;;;;4.97;2.83;;;21.30;66.90;;;;;;5089052;28;20178;-61